메인 페이지
METAR-TAF:

METAR-TAF

공항 :

Kimble County Airport

Junction, 텍사스, 미국

위도: 30-30-39N, 경도: 099-45-59W, 고도: 527m

현재 날씨관측

예보는 1 시간 8분 전, 07:51시(UTC)에 발표되었습니다.
무풍
온도 14°C
습도 82%
기압 1012 hPa
시정: 14.5km
맑음

METAR: KJCT 090751Z AUTO 00000KT 9SM CLR 14/11 A2987 RMK AO2 SLP086 T01440111 PWINO

시각: 02:59 (08:59 UTC)

예보

예보는 3 시간 39분 전, 05:20시(UTC)에 발표되었습니다.
예보 대상 시간: 09일 06시부터 10일 06시까지 (UTC)
여러 방향의 바람 3kt
시정: 10km
고도 25000ft 상공 구름 많음
09일 1800시부터 (UTC)
7kt
시정: 10km
고도 10000ft 상공 구름 많음
10일 0200시부터 (UTC)
북북동12kt, 순간 최대 풍속 19kt
시정: 10km
고도 10000ft 상공 구름 많음

TAF: KJCT 090520Z 0906/1006 VRB03KT P6SM BKN250 FM091800 36007KT P6SM BKN100 FM100200 02012G19KT P6SM BKN100

4,000개 이상의 공항 관측 자료 및 예보 (METAR 및 TAF 보고).

지도상에서 검색 가능한 기상관측소가 노란 점과 빨간 점으로 표시되어 있습니다.

기상관측소 명을 보려면 표시 위로 마우스를 이동하세요.

날씨 관측과 예보를 보려면 클릭하세요.

지도 변경 : 확대하려면 엑스 표시가 있는 녹색 버튼, 축소하려면 빼기 표시가 있는 녹색 버튼, 다음 페이지의 지도를 보려면 녹색 화살표를 클릭하세요.


METAR-TAF: